sim
Sign-in with your pilot id or email,
or register
Callsign
Passwort

Schedule Details

Flight Number: DLH2723
Departure: Berlin Tegel Airport (EDDT) at 11:20
Arrival: Munich Airport (EDDM) at 12:30
Route: Lufthansa Passenger Schedule. Enter filed route here before submitting Pirep.

Weather Information
Getting current METAR information for EDDT 201620Z 08005KT 040V110 CAVOK 22/06 Q1018 NOSIG
Getting current METAR information for EDDM 201620Z 04004KT CAVOK 21/11 Q1015 NOSIG

Schedule Frequency

Route Map